Doylestown, Pennsylvania
Current Conditions -  °F | °C
As of 12:54 PM on Monday 24 Nov 2014 (Local Time) from KDYL Reporting Station
Scattered Clouds Scattered Clouds  
Wind Chill: 21°   Ceiling: Unl
Heat Index: 21°   Visibility: 10mi
Dew Point: 14°   Wind: 12mph
Humidity: 68%   Direction: 210°SSW
Pressure: 29.6"   Gusts: 20mph
Location:  40.31°N, 75.13°W
Report Text: KDYL 241754Z AUTO 21010G17KT 10SM SCT031 21/14 A2960 RMK AO2 SLP021 T02060144 10206 20167 58022
Loading
Personal Weather Stations






























Interactive Weather Map New forecast layout! Learn more

10-Day Weather Forecast

Advertisements
Track Severe Weather on mobile